Staffordville, Connecticut
Current Conditions -  °F | °C
As of 3:52 PM on Thursday 18 Dec 2014 (Local Time) from KIJD Reporting Station
Scattered Clouds Scattered Clouds  
Wind Chill: 32°   Ceiling: Unl
Heat Index: 39°   Visibility: 10mi
Dew Point: 26°   Wind: 10mph
Humidity: 60%   Direction: 290°WNW
Pressure: 29.87"   Gusts: 18mph
Location:  41.99°N, 72.26°W
Report Text: KIJD 182052Z AUTO 29009G16KT 240V300 10SM SCT032 04/M03 A2987 RMK AO2 SLP114 T00391033 53009
Loading
Personal Weather Stations






























Interactive Weather Map New forecast layout! Learn more

10-Day Weather Forecast

Advertisements
Track Severe Weather on mobile